sensor_id;sensor_type;location;lat;lon;timestamp;P1;durP1;ratioP1;P2;durP2;ratioP2
71172;SDS011;58875;51.996;4.504;2023-09-19T00:00:57;2.68;;;2.17;;
71172;SDS011;58875;51.996;4.504;2023-09-19T00:03:23;3.34;;;2.66;;
71172;SDS011;58875;51.996;4.504;2023-09-19T00:05:50;3.28;;;2.56;;
71172;SDS011;58875;51.996;4.504;2023-09-19T00:08:15;3.21;;;2.52;;
71172;SDS011;58875;51.996;4.504;2023-09-19T00:10:41;3.06;;;2.45;;
71172;SDS011;58875;51.996;4.504;2023-09-19T00:13:08;2.99;;;2.38;;
71172;SDS011;58875;51.996;4.504;2023-09-19T00:15:38;3.03;;;2.41;;
71172;SDS011;58875;51.996;4.504;2023-09-19T00:18:06;3.20;;;2.53;;
71172;SDS011;58875;51.996;4.504;2023-09-19T00:20:36;3.09;;;2.47;;
71172;SDS011;58875;51.996;4.504;2023-09-19T00:23:03;3.21;;;2.58;;
71172;SDS011;58875;51.996;4.504;2023-09-19T00:25:34;2.66;;;2.14;;
71172;SDS011;58875;51.996;4.504;2023-09-19T00:28:03;2.89;;;2.34;;
71172;SDS011;58875;51.996;4.504;2023-09-19T00:30:30;3.03;;;2.48;;
71172;SDS011;58875;51.996;4.504;2023-09-19T00:32:55;2.85;;;2.32;;
71172;SDS011;58875;51.996;4.504;2023-09-19T00:35:21;3.16;;;2.56;;
71172;SDS011;58875;51.996;4.504;2023-09-19T00:37:50;3.26;;;2.61;;
71172;SDS011;58875;51.996;4.504;2023-09-19T00:40:16;3.15;;;2.57;;
71172;SDS011;58875;51.996;4.504;2023-09-19T00:42:42;3.06;;;2.51;;
71172;SDS011;58875;51.996;4.504;2023-09-19T00:45:08;2.72;;;2.22;;
71172;SDS011;58875;51.996;4.504;2023-09-19T00:47:39;3.13;;;2.52;;
71172;SDS011;58875;51.996;4.504;2023-09-19T00:50:15;3.11;;;2.50;;
71172;SDS011;58875;51.996;4.504;2023-09-19T00:52:47;3.24;;;2.60;;
71172;SDS011;58875;51.996;4.504;2023-09-19T00:55:15;3.27;;;2.68;;
71172;SDS011;58875;51.996;4.504;2023-09-19T00:57:44;3.58;;;2.89;;
71172;SDS011;58875;51.996;4.504;2023-09-19T01:00:09;3.60;;;2.86;;
71172;SDS011;58875;51.996;4.504;2023-09-19T01:02:41;3.71;;;2.98;;
71172;SDS011;58875;51.996;4.504;2023-09-19T01:05:10;3.43;;;2.78;;
71172;SDS011;58875;51.996;4.504;2023-09-19T01:07:37;3.47;;;2.84;;
71172;SDS011;58875;51.996;4.504;2023-09-19T01:10:06;3.71;;;3.02;;
71172;SDS011;58875;51.996;4.504;2023-09-19T01:20:40;4.56;;;3.47;;
71172;SDS011;58875;51.996;4.504;2023-09-19T01:23:19;3.86;;;2.96;;
71172;SDS011;58875;51.996;4.504;2023-09-19T01:29:00;4.21;;;3.17;;
71172;SDS011;58875;51.996;4.504;2023-09-19T01:31:32;4.78;;;3.57;;
71172;SDS011;58875;51.996;4.504;2023-09-19T01:34:02;4.84;;;3.60;;
71172;SDS011;58875;51.996;4.504;2023-09-19T01:36:34;4.97;;;3.67;;
71172;SDS011;58875;51.996;4.504;2023-09-19T01:39:10;4.48;;;3.36;;
71172;SDS011;58875;51.996;4.504;2023-09-19T01:41:47;5.36;;;3.88;;
71172;SDS011;58875;51.996;4.504;2023-09-19T01:44:22;5.19;;;3.74;;
71172;SDS011;58875;51.996;4.504;2023-09-19T01:46:57;5.41;;;3.83;;
71172;SDS011;58875;51.996;4.504;2023-09-19T01:49:37;5.52;;;3.92;;
71172;SDS011;58875;51.996;4.504;2023-09-19T01:52:14;5.16;;;3.68;;
71172;SDS011;58875;51.996;4.504;2023-09-19T01:54:51;5.13;;;3.69;;
71172;SDS011;58875;51.996;4.504;2023-09-19T01:57:27;4.89;;;3.54;;
71172;SDS011;58875;51.996;4.504;2023-09-19T02:00:05;4.89;;;3.53;;
71172;SDS011;58875;51.996;4.504;2023-09-19T02:02:36;5.21;;;3.74;;
71172;SDS011;58875;51.996;4.504;2023-09-19T02:05:04;4.68;;;3.33;;
71172;SDS011;58875;51.996;4.504;2023-09-19T02:07:30;4.88;;;3.49;;
71172;SDS011;58875;51.996;4.504;2023-09-19T02:09:59;5.08;;;3.64;;
71172;SDS011;58875;51.996;4.504;2023-09-19T02:12:30;4.62;;;3.29;;
71172;SDS011;58875;51.996;4.504;2023-09-19T02:14:56;4.97;;;3.51;;
71172;SDS011;58875;51.996;4.504;2023-09-19T02:17:22;4.79;;;3.38;;
71172;SDS011;58875;51.996;4.504;2023-09-19T02:19:54;4.41;;;3.13;;
71172;SDS011;58875;51.996;4.504;2023-09-19T02:22:20;4.97;;;3.51;;
71172;SDS011;58875;51.996;4.504;2023-09-19T02:24:47;4.48;;;3.28;;
71172;SDS011;58875;51.996;4.504;2023-09-19T02:27:13;4.56;;;3.31;;
71172;SDS011;58875;51.996;4.504;2023-09-19T02:29:41;4.36;;;3.17;;
71172;SDS011;58875;51.996;4.504;2023-09-19T02:32:07;4.75;;;3.41;;
71172;SDS011;58875;51.996;4.504;2023-09-19T02:34:34;5.05;;;3.57;;
71172;SDS011;58875;51.996;4.504;2023-09-19T02:37:04;4.42;;;3.15;;
71172;SDS011;58875;51.996;4.504;2023-09-19T02:39:34;4.93;;;3.43;;
71172;SDS011;58875;51.996;4.504;2023-09-19T02:42:00;4.73;;;3.28;;
71172;SDS011;58875;51.996;4.504;2023-09-19T02:44:25;4.68;;;3.26;;
71172;SDS011;58875;51.996;4.504;2023-09-19T02:46:52;4.65;;;3.23;;
71172;SDS011;58875;51.996;4.504;2023-09-19T02:49:17;4.60;;;3.22;;
71172;SDS011;58875;51.996;4.504;2023-09-19T02:51:43;4.30;;;3.01;;
71172;SDS011;58875;51.996;4.504;2023-09-19T02:54:10;4.38;;;3.13;;
71172;SDS011;58875;51.996;4.504;2023-09-19T02:56:36;3.79;;;2.76;;
71172;SDS011;58875;51.996;4.504;2023-09-19T02:59:03;3.62;;;2.68;;
71172;SDS011;58875;51.996;4.504;2023-09-19T03:01:28;3.96;;;2.89;;
71172;SDS011;58875;51.996;4.504;2023-09-19T03:03:54;3.76;;;2.73;;
71172;SDS011;58875;51.996;4.504;2023-09-19T03:06:20;3.43;;;2.50;;
71172;SDS011;58875;51.996;4.504;2023-09-19T03:08:46;3.53;;;2.61;;
71172;SDS011;58875;51.996;4.504;2023-09-19T03:11:14;3.91;;;2.87;;
71172;SDS011;58875;51.996;4.504;2023-09-19T03:13:41;4.22;;;3.05;;
71172;SDS011;58875;51.996;4.504;2023-09-19T03:16:07;4.19;;;3.01;;
71172;SDS011;58875;51.996;4.504;2023-09-19T03:18:34;4.54;;;3.20;;
71172;SDS011;58875;51.996;4.504;2023-09-19T03:21:00;4.38;;;3.06;;
71172;SDS011;58875;51.996;4.504;2023-09-19T03:23:26;4.00;;;2.75;;
71172;SDS011;58875;51.996;4.504;2023-09-19T03:25:53;4.53;;;3.10;;
71172;SDS011;58875;51.996;4.504;2023-09-19T03:28:24;4.19;;;2.89;;
71172;SDS011;58875;51.996;4.504;2023-09-19T03:30:59;4.49;;;3.09;;
71172;SDS011;58875;51.996;4.504;2023-09-19T03:33:25;4.33;;;2.97;;
71172;SDS011;58875;51.996;4.504;2023-09-19T03:35:54;4.41;;;3.09;;
71172;SDS011;58875;51.996;4.504;2023-09-19T03:38:20;4.31;;;3.03;;
71172;SDS011;58875;51.996;4.504;2023-09-19T03:40:47;4.65;;;3.28;;
71172;SDS011;58875;51.996;4.504;2023-09-19T03:43:14;4.55;;;3.21;;
71172;SDS011;58875;51.996;4.504;2023-09-19T03:45:39;4.62;;;3.27;;
71172;SDS011;58875;51.996;4.504;2023-09-19T03:48:08;4.80;;;3.39;;
71172;SDS011;58875;51.996;4.504;2023-09-19T03:50:36;4.71;;;3.33;;
71172;SDS011;58875;51.996;4.504;2023-09-19T03:53:02;5.24;;;3.69;;
71172;SDS011;58875;51.996;4.504;2023-09-19T03:55:28;4.60;;;3.35;;
71172;SDS011;58875;51.996;4.504;2023-09-19T03:57:55;4.18;;;3.14;;
71172;SDS011;58875;51.996;4.504;2023-09-19T04:00:21;4.15;;;3.16;;
71172;SDS011;58875;51.996;4.504;2023-09-19T04:02:49;4.20;;;3.18;;
71172;SDS011;58875;51.996;4.504;2023-09-19T04:05:17;4.48;;;3.38;;
71172;SDS011;58875;51.996;4.504;2023-09-19T04:07:43;4.67;;;3.49;;
71172;SDS011;58875;51.996;4.504;2023-09-19T04:10:08;4.53;;;3.42;;
71172;SDS011;58875;51.996;4.504;2023-09-19T04:12:36;4.77;;;3.48;;
71172;SDS011;58875;51.996;4.504;2023-09-19T04:15:03;4.56;;;3.36;;
71172;SDS011;58875;51.996;4.504;2023-09-19T04:17:30;4.75;;;3.48;;
71172;SDS011;58875;51.996;4.504;2023-09-19T04:19:58;5.26;;;3.79;;
71172;SDS011;58875;51.996;4.504;2023-09-19T04:22:23;5.15;;;3.71;;
71172;SDS011;58875;51.996;4.504;2023-09-19T04:24:49;4.56;;;3.35;;
71172;SDS011;58875;51.996;4.504;2023-09-19T04:27:14;4.79;;;3.54;;
71172;SDS011;58875;51.996;4.504;2023-09-19T04:29:40;4.12;;;3.10;;
71172;SDS011;58875;51.996;4.504;2023-09-19T04:32:06;4.74;;;3.52;;
71172;SDS011;58875;51.996;4.504;2023-09-19T04:34:33;4.27;;;3.17;;
71172;SDS011;58875;51.996;4.504;2023-09-19T04:37:03;4.08;;;3.02;;
71172;SDS011;58875;51.996;4.504;2023-09-19T04:39:29;4.83;;;3.48;;
71172;SDS011;58875;51.996;4.504;2023-09-19T04:41:54;4.75;;;3.44;;
71172;SDS011;58875;51.996;4.504;2023-09-19T04:44:20;4.54;;;3.30;;
71172;SDS011;58875;51.996;4.504;2023-09-19T04:46:46;4.52;;;3.29;;
71172;SDS011;58875;51.996;4.504;2023-09-19T04:49:12;4.83;;;3.48;;
71172;SDS011;58875;51.996;4.504;2023-09-19T04:51:38;4.81;;;3.47;;
71172;SDS011;58875;51.996;4.504;2023-09-19T04:54:03;4.61;;;3.34;;
71172;SDS011;58875;51.996;4.504;2023-09-19T04:56:29;4.60;;;3.35;;
71172;SDS011;58875;51.996;4.504;2023-09-19T04:58:55;4.64;;;3.39;;
71172;SDS011;58875;51.996;4.504;2023-09-19T05:01:22;3.99;;;2.93;;
71172;SDS011;58875;51.996;4.504;2023-09-19T05:03:47;4.95;;;3.65;;
71172;SDS011;58875;51.996;4.504;2023-09-19T05:06:17;4.81;;;3.54;;
71172;SDS011;58875;51.996;4.504;2023-09-19T05:08:43;5.09;;;3.73;;
71172;SDS011;58875;51.996;4.504;2023-09-19T05:11:09;4.54;;;3.39;;
71172;SDS011;58875;51.996;4.504;2023-09-19T05:13:34;4.28;;;3.24;;
71172;SDS011;58875;51.996;4.504;2023-09-19T05:16:00;4.40;;;3.32;;
71172;SDS011;58875;51.996;4.504;2023-09-19T05:18:28;4.47;;;3.36;;
71172;SDS011;58875;51.996;4.504;2023-09-19T05:20:54;4.39;;;3.33;;
71172;SDS011;58875;51.996;4.504;2023-09-19T05:23:19;4.02;;;3.05;;
71172;SDS011;58875;51.996;4.504;2023-09-19T05:25:46;4.19;;;3.16;;
71172;SDS011;58875;51.996;4.504;2023-09-19T05:28:11;4.41;;;3.34;;
71172;SDS011;58875;51.996;4.504;2023-09-19T05:30:40;4.44;;;3.37;;
71172;SDS011;58875;51.996;4.504;2023-09-19T05:33:08;4.20;;;3.22;;
71172;SDS011;58875;51.996;4.504;2023-09-19T05:35:34;5.01;;;3.75;;
71172;SDS011;58875;51.996;4.504;2023-09-19T05:38:04;4.70;;;3.50;;
71172;SDS011;58875;51.996;4.504;2023-09-19T05:40:33;4.77;;;3.49;;
71172;SDS011;58875;51.996;4.504;2023-09-19T05:43:00;5.34;;;3.88;;
71172;SDS011;58875;51.996;4.504;2023-09-19T05:45:27;5.80;;;4.23;;
71172;SDS011;58875;51.996;4.504;2023-09-19T05:47:53;5.88;;;4.29;;
71172;SDS011;58875;51.996;4.504;2023-09-19T05:50:29;5.52;;;4.01;;
71172;SDS011;58875;51.996;4.504;2023-09-19T05:52:55;6.03;;;4.34;;
71172;SDS011;58875;51.996;4.504;2023-09-19T05:55:23;5.75;;;4.10;;
71172;SDS011;58875;51.996;4.504;2023-09-19T05:57:52;5.67;;;4.07;;
71172;SDS011;58875;51.996;4.504;2023-09-19T06:00:18;6.01;;;4.28;;
71172;SDS011;58875;51.996;4.504;2023-09-19T06:02:49;6.22;;;4.48;;
71172;SDS011;58875;51.996;4.504;2023-09-19T06:05:22;5.56;;;4.07;;
71172;SDS011;58875;51.996;4.504;2023-09-19T06:07:49;5.55;;;4.09;;
71172;SDS011;58875;51.996;4.504;2023-09-19T06:10:15;5.45;;;3.95;;
71172;SDS011;58875;51.996;4.504;2023-09-19T06:12:42;5.59;;;4.06;;
71172;SDS011;58875;51.996;4.504;2023-09-19T06:15:12;6.23;;;4.46;;
71172;SDS011;58875;51.996;4.504;2023-09-19T06:17:51;6.13;;;4.46;;
71172;SDS011;58875;51.996;4.504;2023-09-19T06:20:21;5.57;;;4.18;;
71172;SDS011;58875;51.996;4.504;2023-09-19T06:22:48;5.47;;;4.09;;
71172;SDS011;58875;51.996;4.504;2023-09-19T06:25:15;6.18;;;4.58;;
71172;SDS011;58875;51.996;4.504;2023-09-19T06:27:48;6.02;;;4.46;;
71172;SDS011;58875;51.996;4.504;2023-09-19T06:30:17;5.99;;;4.41;;
71172;SDS011;58875;51.996;4.504;2023-09-19T06:32:43;6.03;;;4.34;;
71172;SDS011;58875;51.996;4.504;2023-09-19T06:35:15;6.36;;;4.54;;
71172;SDS011;58875;51.996;4.504;2023-09-19T06:37:41;5.78;;;4.19;;
71172;SDS011;58875;51.996;4.504;2023-09-19T06:40:12;6.63;;;4.75;;
71172;SDS011;58875;51.996;4.504;2023-09-19T06:42:39;5.77;;;4.22;;
71172;SDS011;58875;51.996;4.504;2023-09-19T06:45:15;6.13;;;4.44;;
71172;SDS011;58875;51.996;4.504;2023-09-19T06:47:46;6.38;;;4.58;;
71172;SDS011;58875;51.996;4.504;2023-09-19T06:50:19;5.54;;;4.01;;
71172;SDS011;58875;51.996;4.504;2023-09-19T06:52:48;6.01;;;4.39;;
71172;SDS011;58875;51.996;4.504;2023-09-19T06:55:18;5.85;;;4.29;;
71172;SDS011;58875;51.996;4.504;2023-09-19T06:57:45;5.60;;;4.10;;
71172;SDS011;58875;51.996;4.504;2023-09-19T07:00:11;6.32;;;4.59;;
71172;SDS011;58875;51.996;4.504;2023-09-19T07:05:32;6.15;;;4.40;;
71172;SDS011;58875;51.996;4.504;2023-09-19T07:07:59;5.87;;;4.24;;
71172;SDS011;58875;51.996;4.504;2023-09-19T07:10:26;6.03;;;4.38;;
71172;SDS011;58875;51.996;4.504;2023-09-19T07:12:55;6.45;;;4.73;;
71172;SDS011;58875;51.996;4.504;2023-09-19T07:15:37;5.97;;;4.37;;
71172;SDS011;58875;51.996;4.504;2023-09-19T07:18:06;6.22;;;4.53;;
71172;SDS011;58875;51.996;4.504;2023-09-19T07:20:32;6.28;;;4.54;;
71172;SDS011;58875;51.996;4.504;2023-09-19T07:22:58;6.28;;;4.56;;
71172;SDS011;58875;51.996;4.504;2023-09-19T07:25:27;6.27;;;4.52;;
71172;SDS011;58875;51.996;4.504;2023-09-19T07:27:56;7.17;;;5.11;;
71172;SDS011;58875;51.996;4.504;2023-09-19T07:30:26;6.49;;;4.58;;
71172;SDS011;58875;51.996;4.504;2023-09-19T07:32:53;6.77;;;4.77;;
71172;SDS011;58875;51.996;4.504;2023-09-19T07:35:18;7.49;;;5.18;;
71172;SDS011;58875;51.996;4.504;2023-09-19T07:37:48;7.74;;;5.37;;
71172;SDS011;58875;51.996;4.504;2023-09-19T07:40:15;7.55;;;5.30;;
71172;SDS011;58875;51.996;4.504;2023-09-19T07:42:40;7.07;;;5.01;;
71172;SDS011;58875;51.996;4.504;2023-09-19T07:45:07;7.09;;;5.04;;
71172;SDS011;58875;51.996;4.504;2023-09-19T07:47:33;6.75;;;4.86;;
71172;SDS011;58875;51.996;4.504;2023-09-19T07:50:01;6.35;;;4.63;;
71172;SDS011;58875;51.996;4.504;2023-09-19T07:52:28;6.31;;;4.61;;
71172;SDS011;58875;51.996;4.504;2023-09-19T07:54:54;6.57;;;4.71;;
71172;SDS011;58875;51.996;4.504;2023-09-19T07:57:22;6.67;;;4.85;;
71172;SDS011;58875;51.996;4.504;2023-09-19T07:59:48;6.89;;;4.95;;
71172;SDS011;58875;51.996;4.504;2023-09-19T08:02:13;6.87;;;4.94;;
71172;SDS011;58875;51.996;4.504;2023-09-19T08:04:44;6.60;;;4.80;;
71172;SDS011;58875;51.996;4.504;2023-09-19T08:07:14;6.90;;;5.02;;
71172;SDS011;58875;51.996;4.504;2023-09-19T08:09:40;6.24;;;4.60;;
71172;SDS011;58875;51.996;4.504;2023-09-19T08:12:06;6.35;;;4.71;;
71172;SDS011;58875;51.996;4.504;2023-09-19T08:14:35;6.10;;;4.59;;
71172;SDS011;58875;51.996;4.504;2023-09-19T08:17:02;6.30;;;4.69;;
71172;SDS011;58875;51.996;4.504;2023-09-19T08:19:30;5.93;;;4.28;;
71172;SDS011;58875;51.996;4.504;2023-09-19T08:22:00;6.64;;;4.74;;
71172;SDS011;58875;51.996;4.504;2023-09-19T08:24:28;6.70;;;4.74;;
71172;SDS011;58875;51.996;4.504;2023-09-19T08:26:55;6.89;;;4.90;;
71172;SDS011;58875;51.996;4.504;2023-09-19T08:29:22;6.84;;;4.85;;
71172;SDS011;58875;51.996;4.504;2023-09-19T08:31:55;6.50;;;4.61;;
71172;SDS011;58875;51.996;4.504;2023-09-19T08:34:22;6.10;;;4.31;;
71172;SDS011;58875;51.996;4.504;2023-09-19T08:36:51;6.17;;;4.45;;
71172;SDS011;58875;51.996;4.504;2023-09-19T08:39:23;6.34;;;4.59;;
71172;SDS011;58875;51.996;4.504;2023-09-19T08:41:57;6.55;;;4.69;;
71172;SDS011;58875;51.996;4.504;2023-09-19T08:44:24;6.92;;;4.86;;
71172;SDS011;58875;51.996;4.504;2023-09-19T08:46:50;6.79;;;4.71;;
71172;SDS011;58875;51.996;4.504;2023-09-19T08:49:24;6.81;;;4.78;;
71172;SDS011;58875;51.996;4.504;2023-09-19T08:52:05;7.14;;;5.08;;
71172;SDS011;58875;51.996;4.504;2023-09-19T08:54:41;6.48;;;4.62;;
71172;SDS011;58875;51.996;4.504;2023-09-19T08:57:09;6.76;;;4.79;;
71172;SDS011;58875;51.996;4.504;2023-09-19T08:59:39;6.56;;;4.65;;
71172;SDS011;58875;51.996;4.504;2023-09-19T09:02:12;6.95;;;4.90;;
71172;SDS011;58875;51.996;4.504;2023-09-19T09:04:40;7.46;;;5.21;;
71172;SDS011;58875;51.996;4.504;2023-09-19T09:07:11;7.08;;;4.93;;
71172;SDS011;58875;51.996;4.504;2023-09-19T09:09:38;6.41;;;4.52;;
71172;SDS011;58875;51.996;4.504;2023-09-19T09:12:08;7.11;;;5.12;;
71172;SDS011;58875;51.996;4.504;2023-09-19T09:14:47;7.03;;;5.08;;
71172;SDS011;58875;51.996;4.504;2023-09-19T09:17:16;6.84;;;4.89;;
71172;SDS011;58875;51.996;4.504;2023-09-19T09:19:45;6.39;;;4.74;;
71172;SDS011;58875;51.996;4.504;2023-09-19T09:22:12;5.88;;;4.45;;
71172;SDS011;58875;51.996;4.504;2023-09-19T09:24:51;5.42;;;4.07;;
71172;SDS011;58875;51.996;4.504;2023-09-19T09:27:23;6.54;;;4.78;;
71172;SDS011;58875;51.996;4.504;2023-09-19T09:29:49;7.01;;;5.00;;
71172;SDS011;58875;51.996;4.504;2023-09-19T09:32:20;6.30;;;4.55;;
71172;SDS011;58875;51.996;4.504;2023-09-19T09:34:50;6.25;;;4.49;;
71172;SDS011;58875;51.996;4.504;2023-09-19T09:37:18;6.29;;;4.62;;
71172;SDS011;58875;51.996;4.504;2023-09-19T09:39:48;6.90;;;5.10;;
71172;SDS011;58875;51.996;4.504;2023-09-19T09:42:35;6.22;;;4.64;;
71172;SDS011;58875;51.996;4.504;2023-09-19T09:47:53;6.04;;;4.50;;
71172;SDS011;58875;51.996;4.504;2023-09-19T09:50:35;5.47;;;4.16;;
71172;SDS011;58875;51.996;4.504;2023-09-19T09:53:05;5.22;;;4.09;;
71172;SDS011;58875;51.996;4.504;2023-09-19T09:58:49;5.06;;;3.97;;
71172;SDS011;58875;51.996;4.504;2023-09-19T10:01:21;5.06;;;4.01;;
71172;SDS011;58875;51.996;4.504;2023-09-19T10:03:52;4.99;;;3.88;;
71172;SDS011;58875;51.996;4.504;2023-09-19T10:06:23;4.36;;;3.46;;
71172;SDS011;58875;51.996;4.504;2023-09-19T10:09:07;4.55;;;3.60;;
71172;SDS011;58875;51.996;4.504;2023-09-19T10:11:46;4.47;;;3.52;;
71172;SDS011;58875;51.996;4.504;2023-09-19T10:14:22;4.30;;;3.34;;
71172;SDS011;58875;51.996;4.504;2023-09-19T10:16:54;4.45;;;3.54;;
71172;SDS011;58875;51.996;4.504;2023-09-19T10:19:29;4.37;;;3.52;;
71172;SDS011;58875;51.996;4.504;2023-09-19T10:22:01;3.73;;;3.14;;
71172;SDS011;58875;51.996;4.504;2023-09-19T10:24:29;3.84;;;3.25;;
71172;SDS011;58875;51.996;4.504;2023-09-19T10:26:59;4.16;;;3.47;;
71172;SDS011;58875;51.996;4.504;2023-09-19T10:29:25;4.34;;;3.57;;
71172;SDS011;58875;51.996;4.504;2023-09-19T10:31:57;4.10;;;3.35;;
71172;SDS011;58875;51.996;4.504;2023-09-19T10:34:25;4.13;;;3.44;;
71172;SDS011;58875;51.996;4.504;2023-09-19T10:36:51;3.74;;;3.07;;
71172;SDS011;58875;51.996;4.504;2023-09-19T10:39:19;3.74;;;3.04;;
71172;SDS011;58875;51.996;4.504;2023-09-19T10:41:51;3.56;;;2.96;;
71172;SDS011;58875;51.996;4.504;2023-09-19T10:44:24;3.33;;;2.76;;
71172;SDS011;58875;51.996;4.504;2023-09-19T10:46:51;3.51;;;2.91;;
71172;SDS011;58875;51.996;4.504;2023-09-19T10:49:19;3.56;;;2.93;;
71172;SDS011;58875;51.996;4.504;2023-09-19T10:51:46;3.27;;;2.66;;
71172;SDS011;58875;51.996;4.504;2023-09-19T10:54:18;3.26;;;2.63;;
71172;SDS011;58875;51.996;4.504;2023-09-19T10:56:51;2.99;;;2.42;;
71172;SDS011;58875;51.996;4.504;2023-09-19T10:59:20;3.13;;;2.56;;
71172;SDS011;58875;51.996;4.504;2023-09-19T11:01:47;3.23;;;2.59;;
71172;SDS011;58875;51.996;4.504;2023-09-19T11:04:33;2.99;;;2.41;;
71172;SDS011;58875;51.996;4.504;2023-09-19T11:07:01;3.63;;;2.95;;
71172;SDS011;58875;51.996;4.504;2023-09-19T11:09:44;3.06;;;2.49;;
71172;SDS011;58875;51.996;4.504;2023-09-19T11:12:12;2.91;;;2.44;;
71172;SDS011;58875;51.996;4.504;2023-09-19T11:15:01;2.72;;;2.29;;
71172;SDS011;58875;51.996;4.504;2023-09-19T11:30:37;2.81;;;2.34;;
71172;SDS011;58875;51.996;4.504;2023-09-19T11:43:49;2.88;;;2.46;;
71172;SDS011;58875;51.996;4.504;2023-09-19T11:49:28;2.68;;;2.27;;
71172;SDS011;58875;51.996;4.504;2023-09-19T11:51:57;3.16;;;2.59;;
71172;SDS011;58875;51.996;4.504;2023-09-19T11:54:26;2.98;;;2.47;;
71172;SDS011;58875;51.996;4.504;2023-09-19T11:56:56;2.73;;;2.33;;
71172;SDS011;58875;51.996;4.504;2023-09-19T11:59:24;2.72;;;2.34;;
71172;SDS011;58875;51.996;4.504;2023-09-19T12:01:54;2.73;;;2.33;;
71172;SDS011;58875;51.996;4.504;2023-09-19T12:04:34;2.87;;;2.46;;
71172;SDS011;58875;51.996;4.504;2023-09-19T12:07:05;2.85;;;2.43;;
71172;SDS011;58875;51.996;4.504;2023-09-19T12:09:51;2.54;;;2.20;;
71172;SDS011;58875;51.996;4.504;2023-09-19T12:12:30;2.68;;;2.33;;
71172;SDS011;58875;51.996;4.504;2023-09-19T12:14:58;2.51;;;2.20;;
71172;SDS011;58875;51.996;4.504;2023-09-19T12:17:23;2.55;;;2.26;;
71172;SDS011;58875;51.996;4.504;2023-09-19T12:20:01;2.82;;;2.44;;
71172;SDS011;58875;51.996;4.504;2023-09-19T12:22:38;2.47;;;2.15;;
71172;SDS011;58875;51.996;4.504;2023-09-19T12:25:11;2.82;;;2.46;;
71172;SDS011;58875;51.996;4.504;2023-09-19T12:27:46;2.57;;;2.28;;
71172;SDS011;58875;51.996;4.504;2023-09-19T12:30:14;2.66;;;2.35;;
71172;SDS011;58875;51.996;4.504;2023-09-19T12:32:44;2.72;;;2.37;;
71172;SDS011;58875;51.996;4.504;2023-09-19T12:35:10;2.66;;;2.28;;
71172;SDS011;58875;51.996;4.504;2023-09-19T12:37:53;2.54;;;2.24;;
71172;SDS011;58875;51.996;4.504;2023-09-19T12:40:21;2.44;;;2.19;;
71172;SDS011;58875;51.996;4.504;2023-09-19T12:42:52;2.57;;;2.26;;
71172;SDS011;58875;51.996;4.504;2023-09-19T12:45:21;2.48;;;2.19;;
71172;SDS011;58875;51.996;4.504;2023-09-19T12:51:18;2.90;;;2.51;;
71172;SDS011;58875;51.996;4.504;2023-09-19T12:53:57;2.43;;;2.09;;
71172;SDS011;58875;51.996;4.504;2023-09-19T12:56:23;2.77;;;2.38;;
71172;SDS011;58875;51.996;4.504;2023-09-19T12:58:56;2.88;;;2.46;;
71172;SDS011;58875;51.996;4.504;2023-09-19T13:01:26;2.85;;;2.46;;
71172;SDS011;58875;51.996;4.504;2023-09-19T13:04:11;2.75;;;2.35;;
71172;SDS011;58875;51.996;4.504;2023-09-19T13:06:53;3.03;;;2.58;;
71172;SDS011;58875;51.996;4.504;2023-09-19T13:09:20;3.43;;;2.81;;
71172;SDS011;58875;51.996;4.504;2023-09-19T13:11:47;3.49;;;2.78;;
71172;SDS011;58875;51.996;4.504;2023-09-19T13:14:16;3.72;;;3.02;;
71172;SDS011;58875;51.996;4.504;2023-09-19T13:17:03;3.19;;;2.64;;
71172;SDS011;58875;51.996;4.504;2023-09-19T13:25:14;2.59;;;2.28;;
71172;SDS011;58875;51.996;4.504;2023-09-19T13:27:52;2.88;;;2.58;;
71172;SDS011;58875;51.996;4.504;2023-09-19T13:30:24;2.66;;;2.43;;
71172;SDS011;58875;51.996;4.504;2023-09-19T13:33:09;2.82;;;2.58;;
71172;SDS011;58875;51.996;4.504;2023-09-19T13:35:37;2.85;;;2.62;;
71172;SDS011;58875;51.996;4.504;2023-09-19T13:38:05;2.85;;;2.62;;
71172;SDS011;58875;51.996;4.504;2023-09-19T13:40:34;3.11;;;2.82;;
71172;SDS011;58875;51.996;4.504;2023-09-19T13:43:03;2.89;;;2.64;;
71172;SDS011;58875;51.996;4.504;2023-09-19T13:45:29;3.06;;;2.79;;
71172;SDS011;58875;51.996;4.504;2023-09-19T13:47:55;3.24;;;2.91;;
71172;SDS011;58875;51.996;4.504;2023-09-19T13:50:21;3.53;;;3.13;;
71172;SDS011;58875;51.996;4.504;2023-09-19T13:52:52;3.18;;;2.87;;
71172;SDS011;58875;51.996;4.504;2023-09-19T13:55:18;3.10;;;2.86;;
71172;SDS011;58875;51.996;4.504;2023-09-19T13:57:46;3.02;;;2.78;;
71172;SDS011;58875;51.996;4.504;2023-09-19T14:00:23;3.33;;;3.01;;
71172;SDS011;58875;51.996;4.504;2023-09-19T14:02:49;3.47;;;3.10;;
71172;SDS011;58875;51.996;4.504;2023-09-19T14:05:16;3.53;;;3.11;;
71172;SDS011;58875;51.996;4.504;2023-09-19T14:07:45;3.40;;;2.94;;
71172;SDS011;58875;51.996;4.504;2023-09-19T14:10:11;3.71;;;3.18;;
71172;SDS011;58875;51.996;4.504;2023-09-19T14:12:40;3.72;;;3.26;;
71172;SDS011;58875;51.996;4.504;2023-09-19T14:15:10;3.61;;;3.24;;
71172;SDS011;58875;51.996;4.504;2023-09-19T14:17:36;3.67;;;3.39;;
71172;SDS011;58875;51.996;4.504;2023-09-19T14:20:03;3.46;;;3.23;;
71172;SDS011;58875;51.996;4.504;2023-09-19T14:22:28;3.14;;;2.96;;
71172;SDS011;58875;51.996;4.504;2023-09-19T14:24:56;3.35;;;3.12;;
71172;SDS011;58875;51.996;4.504;2023-09-19T14:27:22;3.59;;;3.34;;
71172;SDS011;58875;51.996;4.504;2023-09-19T14:29:47;3.66;;;3.42;;
71172;SDS011;58875;51.996;4.504;2023-09-19T14:32:13;3.57;;;3.26;;
71172;SDS011;58875;51.996;4.504;2023-09-19T14:34:38;3.49;;;3.19;;
71172;SDS011;58875;51.996;4.504;2023-09-19T14:37:07;3.57;;;3.24;;
71172;SDS011;58875;51.996;4.504;2023-09-19T14:39:33;3.30;;;3.04;;
71172;SDS011;58875;51.996;4.504;2023-09-19T14:41:59;3.53;;;3.23;;
71172;SDS011;58875;51.996;4.504;2023-09-19T14:44:24;3.26;;;2.96;;
71172;SDS011;58875;51.996;4.504;2023-09-19T14:46:50;3.64;;;3.32;;
71172;SDS011;58875;51.996;4.504;2023-09-19T14:49:16;3.32;;;3.03;;
71172;SDS011;58875;51.996;4.504;2023-09-19T14:51:42;3.80;;;3.36;;
71172;SDS011;58875;51.996;4.504;2023-09-19T14:54:09;3.87;;;3.48;;
71172;SDS011;58875;51.996;4.504;2023-09-19T14:56:35;3.56;;;3.22;;
71172;SDS011;58875;51.996;4.504;2023-09-19T14:59:00;3.51;;;3.18;;
71172;SDS011;58875;51.996;4.504;2023-09-19T15:01:26;3.80;;;3.39;;
71172;SDS011;58875;51.996;4.504;2023-09-19T15:03:52;4.00;;;3.52;;
71172;SDS011;58875;51.996;4.504;2023-09-19T15:06:19;3.92;;;3.51;;
71172;SDS011;58875;51.996;4.504;2023-09-19T15:08:46;3.67;;;3.38;;
71172;SDS011;58875;51.996;4.504;2023-09-19T15:11:13;3.72;;;3.42;;
71172;SDS011;58875;51.996;4.504;2023-09-19T15:13:41;4.16;;;3.78;;
71172;SDS011;58875;51.996;4.504;2023-09-19T15:16:08;4.22;;;3.77;;
71172;SDS011;58875;51.996;4.504;2023-09-19T15:18:35;4.28;;;3.77;;
71172;SDS011;58875;51.996;4.504;2023-09-19T15:21:12;4.12;;;3.66;;
71172;SDS011;58875;51.996;4.504;2023-09-19T15:23:40;3.85;;;3.47;;
71172;SDS011;58875;51.996;4.504;2023-09-19T15:26:07;4.18;;;3.72;;
71172;SDS011;58875;51.996;4.504;2023-09-19T15:28:34;3.97;;;3.55;;
71172;SDS011;58875;51.996;4.504;2023-09-19T15:31:02;4.36;;;3.86;;
71172;SDS011;58875;51.996;4.504;2023-09-19T15:33:32;4.16;;;3.66;;
71172;SDS011;58875;51.996;4.504;2023-09-19T15:36:06;3.80;;;3.37;;
71172;SDS011;58875;51.996;4.504;2023-09-19T15:41:32;4.16;;;3.74;;
71172;SDS011;58875;51.996;4.504;2023-09-19T15:44:00;3.81;;;3.44;;
71172;SDS011;58875;51.996;4.504;2023-09-19T15:46:28;4.06;;;3.73;;
71172;SDS011;58875;51.996;4.504;2023-09-19T15:49:00;3.80;;;3.49;;
71172;SDS011;58875;51.996;4.504;2023-09-19T15:51:26;3.83;;;3.45;;
71172;SDS011;58875;51.996;4.504;2023-09-19T15:53:53;3.57;;;3.24;;
71172;SDS011;58875;51.996;4.504;2023-09-19T15:56:21;3.93;;;3.53;;
71172;SDS011;58875;51.996;4.504;2023-09-19T15:58:48;4.10;;;3.65;;